sensor_id;sensor_type;location;lat;lon;timestamp;pressure;altitude;pressure_sealevel;temperature;humidity
21956;BME280;11142;49.930;8.606;2023-10-09T00:00:14;100468.16;;;14.98;100.00
21956;BME280;11142;49.930;8.606;2023-10-09T00:03:02;100470.69;;;15.00;100.00
21956;BME280;11142;49.930;8.606;2023-10-09T00:05:32;100473.75;;;15.05;100.00
21956;BME280;11142;49.930;8.606;2023-10-09T00:08:16;100474.97;;;15.12;100.00
21956;BME280;11142;49.930;8.606;2023-10-09T00:10:51;100483.75;;;15.11;100.00
21956;BME280;11142;49.930;8.606;2023-10-09T00:13:22;100487.56;;;15.18;100.00
21956;BME280;11142;49.930;8.606;2023-10-09T00:15:56;100479.38;;;15.22;100.00
21956;BME280;11142;49.930;8.606;2023-10-09T00:18:27;100479.25;;;15.24;100.00
21956;BME280;11142;49.930;8.606;2023-10-09T00:21:01;100475.72;;;15.25;100.00
21956;BME280;11142;49.930;8.606;2023-10-09T00:23:39;100476.50;;;15.25;100.00
21956;BME280;11142;49.930;8.606;2023-10-09T00:26:08;100476.16;;;15.30;100.00
21956;BME280;11142;49.930;8.606;2023-10-09T00:28:48;100472.84;;;15.28;100.00
21956;BME280;11142;49.930;8.606;2023-10-09T00:31:18;100466.91;;;15.26;100.00
21956;BME280;11142;49.930;8.606;2023-10-09T00:33:56;100479.63;;;15.30;100.00
21956;BME280;11142;49.930;8.606;2023-10-09T00:36:30;100476.88;;;15.32;100.00
21956;BME280;11142;49.930;8.606;2023-10-09T00:38:59;100466.41;;;15.32;100.00
21956;BME280;11142;49.930;8.606;2023-10-09T00:41:37;100473.56;;;15.30;100.00
21956;BME280;11142;49.930;8.606;2023-10-09T00:44:10;100473.69;;;15.28;100.00
21956;BME280;11142;49.930;8.606;2023-10-09T00:46:39;100471.19;;;15.27;100.00
21956;BME280;11142;49.930;8.606;2023-10-09T00:49:09;100462.72;;;15.23;100.00
21956;BME280;11142;49.930;8.606;2023-10-09T00:51:43;100467.38;;;15.20;100.00
21956;BME280;11142;49.930;8.606;2023-10-09T00:54:23;100458.56;;;15.21;100.00
21956;BME280;11142;49.930;8.606;2023-10-09T00:57:02;100460.69;;;15.16;100.00
21956;BME280;11142;49.930;8.606;2023-10-09T00:59:36;100450.38;;;15.14;100.00
21956;BME280;11142;49.930;8.606;2023-10-09T01:02:06;100441.72;;;15.25;100.00
21956;BME280;11142;49.930;8.606;2023-10-09T01:04:34;100439.69;;;15.28;100.00
21956;BME280;11142;49.930;8.606;2023-10-09T01:07:07;100433.75;;;15.26;100.00
21956;BME280;11142;49.930;8.606;2023-10-09T01:09:37;100435.16;;;15.30;100.00
21956;BME280;11142;49.930;8.606;2023-10-09T01:12:10;100435.16;;;15.30;100.00
21956;BME280;11142;49.930;8.606;2023-10-09T01:14:45;100428.63;;;15.25;100.00
21956;BME280;11142;49.930;8.606;2023-10-09T01:17:19;100430.41;;;15.24;100.00
21956;BME280;11142;49.930;8.606;2023-10-09T01:20:05;100424.22;;;15.25;100.00
21956;BME280;11142;49.930;8.606;2023-10-09T01:22:42;100421.25;;;15.30;100.00
21956;BME280;11142;49.930;8.606;2023-10-09T01:25:12;100422.94;;;15.31;100.00
21956;BME280;11142;49.930;8.606;2023-10-09T01:27:40;100426.00;;;15.36;100.00
21956;BME280;11142;49.930;8.606;2023-10-09T01:30:11;100422.56;;;15.35;100.00
21956;BME280;11142;49.930;8.606;2023-10-09T01:32:40;100421.25;;;15.30;100.00
21956;BME280;11142;49.930;8.606;2023-10-09T01:35:10;100422.69;;;15.34;100.00
21956;BME280;11142;49.930;8.606;2023-10-09T01:37:47;100416.16;;;15.17;100.00
21956;BME280;11142;49.930;8.606;2023-10-09T01:40:19;100399.88;;;15.03;100.00
21956;BME280;11142;49.930;8.606;2023-10-09T01:43:03;100390.00;;;14.95;100.00
21956;BME280;11142;49.930;8.606;2023-10-09T01:45:32;100382.06;;;14.97;100.00
21956;BME280;11142;49.930;8.606;2023-10-09T01:48:09;100384.06;;;15.04;100.00
21956;BME280;11142;49.930;8.606;2023-10-09T01:50:39;100381.44;;;15.04;100.00
21956;BME280;11142;49.930;8.606;2023-10-09T01:53:08;100379.06;;;15.01;100.00
21956;BME280;11142;49.930;8.606;2023-10-09T01:55:45;100379.31;;;14.98;100.00
21956;BME280;11142;49.930;8.606;2023-10-09T01:58:13;100368.63;;;15.01;100.00
21956;BME280;11142;49.930;8.606;2023-10-09T02:00:51;100374.56;;;14.92;100.00
21956;BME280;11142;49.930;8.606;2023-10-09T02:03:22;100363.00;;;14.61;100.00
21956;BME280;11142;49.930;8.606;2023-10-09T02:05:53;100347.53;;;14.47;100.00
21956;BME280;11142;49.930;8.606;2023-10-09T02:08:27;100341.38;;;14.59;100.00
21956;BME280;11142;49.930;8.606;2023-10-09T02:10:57;100340.56;;;14.70;100.00
21956;BME280;11142;49.930;8.606;2023-10-09T02:13:26;100341.16;;;14.84;100.00
21956;BME280;11142;49.930;8.606;2023-10-09T02:15:58;100353.50;;;14.94;100.00
21956;BME280;11142;49.930;8.606;2023-10-09T02:18:40;100361.38;;;15.05;100.00
21956;BME280;11142;49.930;8.606;2023-10-09T02:21:20;100367.78;;;15.01;100.00
21956;BME280;11142;49.930;8.606;2023-10-09T02:24:01;100374.91;;;15.10;100.00
21956;BME280;11142;49.930;8.606;2023-10-09T02:26:37;100389.66;;;15.11;100.00
21956;BME280;11142;49.930;8.606;2023-10-09T02:29:33;100379.19;;;15.11;100.00
21956;BME280;11142;49.930;8.606;2023-10-09T02:32:05;100378.47;;;15.20;100.00
21956;BME280;11142;49.930;8.606;2023-10-09T02:34:41;100388.09;;;15.19;100.00
21956;BME280;11142;49.930;8.606;2023-10-09T02:37:13;100376.59;;;15.22;100.00
21956;BME280;11142;49.930;8.606;2023-10-09T02:39:42;100376.69;;;15.31;100.00
21956;BME280;11142;49.930;8.606;2023-10-09T02:42:16;100375.88;;;15.31;100.00
21956;BME280;11142;49.930;8.606;2023-10-09T02:44:50;100385.34;;;15.32;100.00
21956;BME280;11142;49.930;8.606;2023-10-09T02:47:19;100379.31;;;15.31;100.00
21956;BME280;11142;49.930;8.606;2023-10-09T02:49:52;100389.41;;;15.25;100.00
21956;BME280;11142;49.930;8.606;2023-10-09T02:52:27;100376.59;;;15.22;100.00
21956;BME280;11142;49.930;8.606;2023-10-09T02:55:00;100375.41;;;15.15;100.00
21956;BME280;11142;49.930;8.606;2023-10-09T02:57:36;100369.91;;;15.07;100.00
21956;BME280;11142;49.930;8.606;2023-10-09T03:00:06;100366.00;;;15.12;100.00
21956;BME280;11142;49.930;8.606;2023-10-09T03:02:45;100368.16;;;15.18;100.00
21956;BME280;11142;49.930;8.606;2023-10-09T03:05:17;100365.88;;;15.25;100.00
21956;BME280;11142;49.930;8.606;2023-10-09T03:07:47;100378.22;;;15.23;100.00
21956;BME280;11142;49.930;8.606;2023-10-09T03:10:21;100372.31;;;15.21;100.00
21956;BME280;11142;49.930;8.606;2023-10-09T03:12:51;100368.75;;;15.00;100.00
21956;BME280;11142;49.930;8.606;2023-10-09T03:15:20;100365.66;;;15.06;100.00
21956;BME280;11142;49.930;8.606;2023-10-09T03:17:48;100360.91;;;15.00;100.00
21956;BME280;11142;49.930;8.606;2023-10-09T03:20:17;100350.69;;;14.74;100.00
21956;BME280;11142;49.930;8.606;2023-10-09T03:22:45;100350.69;;;14.74;100.00
21956;BME280;11142;49.930;8.606;2023-10-09T03:25:14;100340.13;;;14.87;100.00
21956;BME280;11142;49.930;8.606;2023-10-09T03:27:44;100352.72;;;14.93;100.00
21956;BME280;11142;49.930;8.606;2023-10-09T03:30:15;100352.59;;;15.06;100.00
21956;BME280;11142;49.930;8.606;2023-10-09T03:32:50;100360.31;;;15.18;100.00
21956;BME280;11142;49.930;8.606;2023-10-09T03:35:19;100360.41;;;15.28;100.00
21956;BME280;11142;49.930;8.606;2023-10-09T03:37:53;100363.38;;;15.34;100.00
21956;BME280;11142;49.930;8.606;2023-10-09T03:40:24;100371.78;;;15.38;100.00
21956;BME280;11142;49.930;8.606;2023-10-09T03:42:52;100378.47;;;15.42;100.00
21956;BME280;11142;49.930;8.606;2023-10-09T03:45:22;100379.06;;;15.46;100.00
21956;BME280;11142;49.930;8.606;2023-10-09T03:47:55;100376.13;;;15.50;100.00
21956;BME280;11142;49.930;8.606;2023-10-09T03:50:36;100377.06;;;15.49;100.00
21956;BME280;11142;49.930;8.606;2023-10-09T03:53:05;100369.44;;;15.46;100.00
21956;BME280;11142;49.930;8.606;2023-10-09T03:55:39;100363.97;;;15.49;100.00
21956;BME280;11142;49.930;8.606;2023-10-09T03:58:09;100362.78;;;15.53;100.00
21956;BME280;11142;49.930;8.606;2023-10-09T04:00:40;100364.31;;;15.56;100.00
21956;BME280;11142;49.930;8.606;2023-10-09T04:03:14;100367.63;;;15.58;100.00
21956;BME280;11142;49.930;8.606;2023-10-09T04:05:43;100371.44;;;15.65;100.00
21956;BME280;11142;49.930;8.606;2023-10-09T04:08:12;100379.63;;;15.71;100.00
21956;BME280;11142;49.930;8.606;2023-10-09T04:10:47;100383.78;;;15.74;100.00
21956;BME280;11142;49.930;8.606;2023-10-09T04:13:24;100384.72;;;15.73;100.00
21956;BME280;11142;49.930;8.606;2023-10-09T04:16:03;100386.28;;;15.75;100.00
21956;BME280;11142;49.930;8.606;2023-10-09T04:18:46;100391.53;;;15.75;100.00
21956;BME280;11142;49.930;8.606;2023-10-09T04:21:14;100392.91;;;15.79;100.00
21956;BME280;11142;49.930;8.606;2023-10-09T04:24:01;100401.66;;;15.69;100.00
21956;BME280;11142;49.930;8.606;2023-10-09T04:26:47;100394.38;;;15.72;100.00
21956;BME280;11142;49.930;8.606;2023-10-09T04:29:23;100392.81;;;15.81;100.00
21956;BME280;11142;49.930;8.606;2023-10-09T04:31:56;100400.91;;;15.78;100.00
21956;BME280;11142;49.930;8.606;2023-10-09T04:34:27;100395.44;;;15.81;100.00
21956;BME280;11142;49.930;8.606;2023-10-09T04:37:02;100395.06;;;15.85;100.00
21956;BME280;11142;49.930;8.606;2023-10-09T04:39:50;100394.16;;;15.75;100.00
21956;BME280;11142;49.930;8.606;2023-10-09T04:42:28;100394.25;;;15.74;100.00
21956;BME280;11142;49.930;8.606;2023-10-09T04:45:06;100395.09;;;15.74;100.00
21956;BME280;11142;49.930;8.606;2023-10-09T04:47:48;100392.91;;;15.79;100.00
21956;BME280;11142;49.930;8.606;2023-10-09T04:50:29;100394.84;;;15.77;100.00
21956;BME280;11142;49.930;8.606;2023-10-09T04:53:33;100394.34;;;15.83;100.00
21956;BME280;11142;49.930;8.606;2023-10-09T04:56:11;100396.63;;;15.77;100.00
21956;BME280;11142;49.930;8.606;2023-10-09T04:58:43;100394.59;;;15.80;100.00
21956;BME280;11142;49.930;8.606;2023-10-09T05:01:13;100412.41;;;15.86;100.00
21956;BME280;11142;49.930;8.606;2023-10-09T05:03:43;100402.09;;;15.85;100.00
21956;BME280;11142;49.930;8.606;2023-10-09T05:06:12;100410.03;;;15.94;100.00
21956;BME280;11142;49.930;8.606;2023-10-09T05:09:10;100406.91;;;16.01;100.00
21956;BME280;11142;49.930;8.606;2023-10-09T05:11:42;100407.28;;;15.96;100.00
21956;BME280;11142;49.930;8.606;2023-10-09T05:14:36;100402.53;;;15.90;100.00
21956;BME280;11142;49.930;8.606;2023-10-09T05:17:06;100401.84;;;15.88;100.00
21956;BME280;11142;49.930;8.606;2023-10-09T05:19:44;100401.84;;;15.77;100.00
21956;BME280;11142;49.930;8.606;2023-10-09T05:22:42;100399.25;;;15.77;100.00
21956;BME280;11142;49.930;8.606;2023-10-09T05:25:24;100399.00;;;15.80;100.00
21956;BME280;11142;49.930;8.606;2023-10-09T05:28:19;100396.03;;;15.84;100.00
21956;BME280;11142;49.930;8.606;2023-10-09T05:30:58;100398.97;;;15.91;100.00
21956;BME280;11142;49.930;8.606;2023-10-09T05:33:58;100399.91;;;15.90;100.00
21956;BME280;11142;49.930;8.606;2023-10-09T05:36:29;100390.03;;;15.93;100.00
21956;BME280;11142;49.930;8.606;2023-10-09T05:39:02;100388.53;;;15.80;100.00
21956;BME280;11142;49.930;8.606;2023-10-09T05:41:56;100388.38;;;15.92;100.00
21956;BME280;11142;49.930;8.606;2023-10-09T05:44:34;100392.06;;;16.01;100.00
21956;BME280;11142;49.930;8.606;2023-10-09T05:47:20;100399.09;;;15.89;100.00
21956;BME280;11142;49.930;8.606;2023-10-09T05:50:02;100392.53;;;15.95;100.00
21956;BME280;11142;49.930;8.606;2023-10-09T05:52:45;100405.50;;;15.97;100.00
21956;BME280;11142;49.930;8.606;2023-10-09T05:55:43;100395.13;;;16.06;100.00
21956;BME280;11142;49.930;8.606;2023-10-09T05:58:30;100388.72;;;15.99;100.00
21956;BME280;11142;49.930;8.606;2023-10-09T06:01:30;100395.38;;;16.03;100.00
21956;BME280;11142;49.930;8.606;2023-10-09T06:04:16;100391.41;;;16.09;100.00
21956;BME280;11142;49.930;8.606;2023-10-09T06:06:46;100394.94;;;16.19;100.00
21956;BME280;11142;49.930;8.606;2023-10-09T06:09:24;100403.63;;;16.19;100.00
21956;BME280;11142;49.930;8.606;2023-10-09T06:12:12;100408.97;;;16.18;100.00
21956;BME280;11142;49.930;8.606;2023-10-09T06:14:57;100409.72;;;16.20;100.00
21956;BME280;11142;49.930;8.606;2023-10-09T06:17:46;100421.81;;;16.32;100.00
21956;BME280;11142;49.930;8.606;2023-10-09T06:20:17;100425.69;;;16.37;100.00
21956;BME280;11142;49.930;8.606;2023-10-09T06:23:27;100425.25;;;16.53;100.00
21956;BME280;11142;49.930;8.606;2023-10-09T06:26:11;100426.03;;;16.55;100.00
21956;BME280;11142;49.930;8.606;2023-10-09T06:28:51;100426.16;;;16.74;100.00
21956;BME280;11142;49.930;8.606;2023-10-09T06:31:40;100448.34;;;16.70;100.00
21956;BME280;11142;49.930;8.606;2023-10-09T06:34:29;100449.09;;;16.82;100.00
21956;BME280;11142;49.930;8.606;2023-10-09T06:37:02;100441.47;;;16.79;100.00
21956;BME280;11142;49.930;8.606;2023-10-09T06:39:44;100447.88;;;16.86;100.00
21956;BME280;11142;49.930;8.606;2023-10-09T06:42:18;100442.69;;;16.95;100.00
21956;BME280;11142;49.930;8.606;2023-10-09T06:45:01;100450.47;;;17.07;100.00
21956;BME280;11142;49.930;8.606;2023-10-09T06:47:43;100456.69;;;17.06;100.00
21956;BME280;11142;49.930;8.606;2023-10-09T06:50:20;100465.06;;;17.20;100.00
21956;BME280;11142;49.930;8.606;2023-10-09T06:53:14;100458.72;;;17.23;100.00
21956;BME280;11142;49.930;8.606;2023-10-09T06:55:53;100461.06;;;17.26;100.00
21956;BME280;11142;49.930;8.606;2023-10-09T06:58:33;100460.53;;;17.32;100.00
21956;BME280;11142;49.930;8.606;2023-10-09T07:01:09;100468.00;;;17.27;100.00
21956;BME280;11142;49.930;8.606;2023-10-09T07:04:07;100471.91;;;17.42;100.00
21956;BME280;11142;49.930;8.606;2023-10-09T07:06:46;100473.84;;;17.40;100.00
21956;BME280;11142;49.930;8.606;2023-10-09T07:09:18;100469.75;;;17.47;100.00
21956;BME280;11142;49.930;8.606;2023-10-09T07:11:47;100480.31;;;17.57;100.00
21956;BME280;11142;49.930;8.606;2023-10-09T07:14:27;100478.03;;;17.52;100.00
21956;BME280;11142;49.930;8.606;2023-10-09T07:17:15;100481.16;;;17.67;100.00
21956;BME280;11142;49.930;8.606;2023-10-09T07:20:11;100482.72;;;17.69;100.00
21956;BME280;11142;49.930;8.606;2023-10-09T07:23:03;100471.22;;;17.70;100.00
21956;BME280;11142;49.930;8.606;2023-10-09T07:25:48;100484.53;;;17.78;100.00
21956;BME280;11142;49.930;8.606;2023-10-09T07:28:27;100481.34;;;17.75;100.00
21956;BME280;11142;49.930;8.606;2023-10-09T07:31:18;100480.66;;;17.82;100.00
21956;BME280;11142;49.930;8.606;2023-10-09T07:33:56;100487.78;;;18.01;100.00
21956;BME280;11142;49.930;8.606;2023-10-09T07:36:25;100503.13;;;18.05;100.00
21956;BME280;11142;49.930;8.606;2023-10-09T07:39:03;100513.69;;;18.25;100.00
21956;BME280;11142;49.930;8.606;2023-10-09T07:41:40;100518.34;;;18.61;100.00
21956;BME280;11142;49.930;8.606;2023-10-09T07:44:12;100527.31;;;18.87;100.00
21956;BME280;11142;49.930;8.606;2023-10-09T07:46:55;100524.00;;;18.76;100.00
21956;BME280;11142;49.930;8.606;2023-10-09T07:49:41;100527.56;;;19.03;100.00
21956;BME280;11142;49.930;8.606;2023-10-09T07:52:09;100536.84;;;19.07;100.00
21956;BME280;11142;49.930;8.606;2023-10-09T07:54:38;100547.34;;;19.17;100.00
21956;BME280;11142;49.930;8.606;2023-10-09T07:57:17;100555.09;;;19.28;100.00
21956;BME280;11142;49.930;8.606;2023-10-09T07:59:52;100553.00;;;19.32;100.00
21956;BME280;11142;49.930;8.606;2023-10-09T08:02:39;100555.06;;;19.38;100.00
21956;BME280;11142;49.930;8.606;2023-10-09T08:05:08;100567.44;;;19.47;100.00
21956;BME280;11142;49.930;8.606;2023-10-09T08:07:47;100565.72;;;19.65;100.00
21956;BME280;11142;49.930;8.606;2023-10-09T08:11:01;100570.50;;;19.79;100.00
21956;BME280;11142;49.930;8.606;2023-10-09T08:13:43;100574.34;;;19.94;100.00
21956;BME280;11142;49.930;8.606;2023-10-09T08:16:23;100574.09;;;20.15;100.00
21956;BME280;11142;49.930;8.606;2023-10-09T08:18:55;100582.00;;;20.15;100.00
21956;BME280;11142;49.930;8.606;2023-10-09T08:21:24;100577.56;;;20.43;100.00
21956;BME280;11142;49.930;8.606;2023-10-09T08:24:07;100584.56;;;20.79;100.00
21956;BME280;11142;49.930;8.606;2023-10-09T08:26:57;100589.53;;;20.82;100.00
21956;BME280;11142;49.930;8.606;2023-10-09T08:29:39;100600.97;;;20.91;100.00
21956;BME280;11142;49.930;8.606;2023-10-09T08:32:13;100599.78;;;20.85;100.00
21956;BME280;11142;49.930;8.606;2023-10-09T08:35:07;100592.44;;;20.97;100.00
21956;BME280;11142;49.930;8.606;2023-10-09T08:37:56;100584.31;;;20.28;100.00
21956;BME280;11142;49.930;8.606;2023-10-09T08:40:31;100585.34;;;19.80;100.00
21956;BME280;11142;49.930;8.606;2023-10-09T08:43:08;100578.00;;;19.74;100.00
21956;BME280;11142;49.930;8.606;2023-10-09T08:45:38;100575.03;;;19.59;100.00
21956;BME280;11142;49.930;8.606;2023-10-09T08:48:07;100572.94;;;19.44;100.00
21956;BME280;11142;49.930;8.606;2023-10-09T08:50:45;100575.31;;;19.56;100.00
21956;BME280;11142;49.930;8.606;2023-10-09T08:53:16;100574.47;;;19.56;100.00
21956;BME280;11142;49.930;8.606;2023-10-09T08:55:45;100566.84;;;19.53;100.00
21956;BME280;11142;49.930;8.606;2023-10-09T08:58:15;100570.56;;;19.60;100.00
21956;BME280;11142;49.930;8.606;2023-10-09T09:00:47;100590.66;;;19.61;100.00
21956;BME280;11142;49.930;8.606;2023-10-09T09:03:18;100583.97;;;19.76;100.00
21956;BME280;11142;49.930;8.606;2023-10-09T09:05:58;100583.31;;;20.01;100.00
21956;BME280;11142;49.930;8.606;2023-10-09T09:08:30;100586.06;;;20.09;100.00
21956;BME280;11142;49.930;8.606;2023-10-09T09:11:04;100585.56;;;20.24;100.00
21956;BME280;11142;49.930;8.606;2023-10-09T09:13:45;100592.78;;;20.22;100.00
21956;BME280;11142;49.930;8.606;2023-10-09T09:16:17;100592.16;;;20.10;100.00
21956;BME280;11142;49.930;8.606;2023-10-09T09:18:51;100607.22;;;19.90;100.00
21956;BME280;11142;49.930;8.606;2023-10-09T09:21:25;100608.25;;;20.07;100.00
21956;BME280;11142;49.930;8.606;2023-10-09T09:23:58;100605.63;;;20.07;100.00
21956;BME280;11142;49.930;8.606;2023-10-09T09:26:36;100598.03;;;20.04;100.00
21956;BME280;11142;49.930;8.606;2023-10-09T09:29:05;100601.88;;;20.09;100.00
21956;BME280;11142;49.930;8.606;2023-10-09T09:31:36;100599.06;;;20.11;100.00
21956;BME280;11142;49.930;8.606;2023-10-09T09:34:06;100600.34;;;20.07;100.00
21956;BME280;11142;49.930;8.606;2023-10-09T09:36:52;100600.31;;;20.17;100.00
21956;BME280;11142;49.930;8.606;2023-10-09T09:39:22;100606.09;;;20.20;100.00
21956;BME280;11142;49.930;8.606;2023-10-09T09:42:11;100618.16;;;20.32;100.00
21956;BME280;11142;49.930;8.606;2023-10-09T09:44:42;100620.59;;;20.43;100.00
21956;BME280;11142;49.930;8.606;2023-10-09T09:47:12;100625.31;;;20.67;100.00
21956;BME280;11142;49.930;8.606;2023-10-09T09:49:51;100622.09;;;20.73;100.00
21956;BME280;11142;49.930;8.606;2023-10-09T09:52:30;100620.66;;;20.96;100.00
21956;BME280;11142;49.930;8.606;2023-10-09T09:55:08;100602.25;;;21.04;100.00
21956;BME280;11142;49.930;8.606;2023-10-09T09:57:42;100595.78;;;20.99;100.00
21956;BME280;11142;49.930;8.606;2023-10-09T10:00:20;100610.06;;;21.24;100.00
21956;BME280;11142;49.930;8.606;2023-10-09T10:03:00;100616.59;;;21.63;100.00
21956;BME280;11142;49.930;8.606;2023-10-09T10:05:30;100630.22;;;21.76;100.00
21956;BME280;11142;49.930;8.606;2023-10-09T10:08:00;100643.09;;;21.53;100.00
21956;BME280;11142;49.930;8.606;2023-10-09T10:10:39;100648.91;;;21.57;100.00
21956;BME280;11142;49.930;8.606;2023-10-09T10:13:17;100651.97;;;21.88;100.00
21956;BME280;11142;49.930;8.606;2023-10-09T10:15:59;100655.72;;;21.85;100.00
21956;BME280;11142;49.930;8.606;2023-10-09T10:18:53;100668.59;;;21.37;100.00
21956;BME280;11142;49.930;8.606;2023-10-09T10:21:29;100655.25;;;21.21;100.00
21956;BME280;11142;49.930;8.606;2023-10-09T10:24:41;100658.19;;;21.17;100.00
21956;BME280;11142;49.930;8.606;2023-10-09T10:27:25;100652.25;;;21.41;100.00
21956;BME280;11142;49.930;8.606;2023-10-09T10:30:28;100634.38;;;21.53;100.00
21956;BME280;11142;49.930;8.606;2023-10-09T10:33:04;100620.97;;;21.46;100.00
21956;BME280;11142;49.930;8.606;2023-10-09T10:35:40;100634.53;;;21.51;100.00
21956;BME280;11142;49.930;8.606;2023-10-09T10:38:31;100636.47;;;21.93;100.00
21956;BME280;11142;49.930;8.606;2023-10-09T10:41:12;100646.66;;;22.13;100.00
21956;BME280;11142;49.930;8.606;2023-10-09T10:43:44;100643.34;;;22.11;100.00
21956;BME280;11142;49.930;8.606;2023-10-09T10:46:22;100637.38;;;22.43;100.00
21956;BME280;11142;49.930;8.606;2023-10-09T10:49:06;100620.22;;;22.55;100.00
21956;BME280;11142;49.930;8.606;2023-10-09T10:51:48;100601.97;;;23.02;100.00
21956;BME280;11142;49.930;8.606;2023-10-09T10:54:28;100584.63;;;23.24;100.00
21956;BME280;11142;49.930;8.606;2023-10-09T10:57:36;100581.78;;;23.34;97.67
21956;BME280;11142;49.930;8.606;2023-10-09T11:00:18;100567.38;;;23.28;97.28
21956;BME280;11142;49.930;8.606;2023-10-09T11:03:01;100544.88;;;22.84;99.25
21956;BME280;11142;49.930;8.606;2023-10-09T11:05:44;100551.16;;;22.91;99.33
21956;BME280;11142;49.930;8.606;2023-10-09T11:08:18;100565.53;;;23.61;95.21
21956;BME280;11142;49.930;8.606;2023-10-09T11:10:50;100566.13;;;23.87;93.64
21956;BME280;11142;49.930;8.606;2023-10-09T11:13:23;100580.75;;;24.83;87.99
21956;BME280;11142;49.930;8.606;2023-10-09T11:15:58;100582.38;;;25.82;83.13
21956;BME280;11142;49.930;8.606;2023-10-09T11:18:41;100581.59;;;26.68;77.18
21956;BME280;11142;49.930;8.606;2023-10-09T11:21:14;100571.53;;;27.06;73.09
21956;BME280;11142;49.930;8.606;2023-10-09T11:23:58;100573.53;;;26.97;72.00
21956;BME280;11142;49.930;8.606;2023-10-09T11:26:47;100582.59;;;27.52;68.83
21956;BME280;11142;49.930;8.606;2023-10-09T11:29:23;100581.59;;;29.61;58.42
21956;BME280;11142;49.930;8.606;2023-10-09T11:32:00;100572.53;;;29.02;58.33
21956;BME280;11142;49.930;8.606;2023-10-09T11:34:32;100567.16;;;28.76;58.03
21956;BME280;11142;49.930;8.606;2023-10-09T11:37:12;100565.31;;;28.77;58.47
21956;BME280;11142;49.930;8.606;2023-10-09T11:39:39;100558.00;;;30.09;53.92
21956;BME280;11142;49.930;8.606;2023-10-09T11:42:24;100551.88;;;30.77;51.33
21956;BME280;11142;49.930;8.606;2023-10-09T11:45:06;100544.38;;;32.15;47.53
21956;BME280;11142;49.930;8.606;2023-10-09T11:47:46;100543.56;;;32.14;43.90
21956;BME280;11142;49.930;8.606;2023-10-09T11:50:40;100523.31;;;30.89;46.96
21956;BME280;11142;49.930;8.606;2023-10-09T11:53:19;100546.25;;;30.85;48.01
21956;BME280;11142;49.930;8.606;2023-10-09T11:56:00;100523.84;;;29.27;51.50
21956;BME280;11142;49.930;8.606;2023-10-09T11:58:29;100519.66;;;28.05;54.09
21956;BME280;11142;49.930;8.606;2023-10-09T12:01:11;100518.25;;;27.61;59.52
21956;BME280;11142;49.930;8.606;2023-10-09T12:03:44;100524.03;;;27.65;59.38
21956;BME280;11142;49.930;8.606;2023-10-09T12:06:17;100526.16;;;27.82;60.83
21956;BME280;11142;49.930;8.606;2023-10-09T12:08:52;100514.13;;;28.00;58.68
21956;BME280;11142;49.930;8.606;2023-10-09T12:11:20;100512.66;;;27.56;60.68
21956;BME280;11142;49.930;8.606;2023-10-09T12:13:56;100509.34;;;27.48;62.14
21956;BME280;11142;49.930;8.606;2023-10-09T12:16:29;100503.38;;;26.69;65.86
21956;BME280;11142;49.930;8.606;2023-10-09T12:19:00;100495.38;;;26.12;70.16
21956;BME280;11142;49.930;8.606;2023-10-09T12:21:29;100497.66;;;26.51;69.43
21956;BME280;11142;49.930;8.606;2023-10-09T12:23:58;100503.69;;;27.02;67.54
21956;BME280;11142;49.930;8.606;2023-10-09T12:26:28;100485.28;;;27.41;62.14
21956;BME280;11142;49.930;8.606;2023-10-09T12:29:02;100495.81;;;27.21;63.01
21956;BME280;11142;49.930;8.606;2023-10-09T12:31:40;100488.91;;;26.78;66.58
21956;BME280;11142;49.930;8.606;2023-10-09T12:34:12;100488.78;;;26.22;68.00
21956;BME280;11142;49.930;8.606;2023-10-09T12:36:44;100479.66;;;25.66;69.78
21956;BME280;11142;49.930;8.606;2023-10-09T12:39:13;100478.09;;;25.86;70.08
21956;BME280;11142;49.930;8.606;2023-10-09T12:41:45;100472.41;;;25.89;69.13
21956;BME280;11142;49.930;8.606;2023-10-09T12:44:13;100478.81;;;25.95;69.57
21956;BME280;11142;49.930;8.606;2023-10-09T12:46:45;100479.28;;;25.84;67.81
21956;BME280;11142;49.930;8.606;2023-10-09T12:49:19;100477.44;;;25.99;67.63
21956;BME280;11142;49.930;8.606;2023-10-09T12:51:54;100484.38;;;25.64;68.05
21956;BME280;11142;49.930;8.606;2023-10-09T12:54:24;100473.97;;;25.69;68.12
21956;BME280;11142;49.930;8.606;2023-10-09T12:56:55;100477.75;;;25.75;68.85
21956;BME280;11142;49.930;8.606;2023-10-09T12:59:27;100481.41;;;25.74;69.88
21956;BME280;11142;49.930;8.606;2023-10-09T13:01:59;100460.75;;;25.47;68.85
21956;BME280;11142;49.930;8.606;2023-10-09T13:04:30;100465.75;;;25.64;69.83
21956;BME280;11142;49.930;8.606;2023-10-09T13:07:00;100465.41;;;26.03;68.97
21956;BME280;11142;49.930;8.606;2023-10-09T13:09:31;100468.91;;;25.89;68.13
21956;BME280;11142;49.930;8.606;2023-10-09T13:12:10;100467.53;;;25.93;67.23
21956;BME280;11142;49.930;8.606;2023-10-09T13:14:45;100478.84;;;25.66;67.96
21956;BME280;11142;49.930;8.606;2023-10-09T13:17:18;100466.91;;;25.47;68.58
21956;BME280;11142;49.930;8.606;2023-10-09T13:19:49;100471.88;;;25.50;70.02
21956;BME280;11142;49.930;8.606;2023-10-09T13:22:17;100476.63;;;25.84;68.77
21956;BME280;11142;49.930;8.606;2023-10-09T13:24:45;100474.44;;;26.23;67.41
21956;BME280;11142;49.930;8.606;2023-10-09T13:27:15;100466.22;;;26.39;66.87
21956;BME280;11142;49.930;8.606;2023-10-09T13:29:48;100464.25;;;26.69;65.63
21956;BME280;11142;49.930;8.606;2023-10-09T13:32:20;100474.09;;;26.97;63.55